Time;durP1;ratioP1;P1;durP2;ratioP2;P2;SDS_P1;SDS_P2;PMS_P1;PMS_P2;Temp;Humidity;BMP_temperature;BMP_pressure;BME280_temperature;BME280_humidity;BME280_pressure;Samples;Min_cycle;Max_cycle;Signal;HPM_P1;HPM_P2
2023/06/22 00:00:57;;;;;;;31.67;17.00;;;;;;;14.03;100.00;102115.16;5036609;28;20151;-77
2023/06/22 00:03:24;;;;;;;34.67;17.58;;;;;;;14.02;100.00;102107.25;5036934;28;20078;-77
2023/06/22 00:05:50;;;;;;;30.10;16.52;;;;;;;13.99;100.00;102103.00;5055058;28;20325;-77
2023/06/22 00:08:16;;;;;;;41.05;18.48;;;;;;;13.95;100.00;102098.03;5055094;28;20128;-78
2023/06/22 00:10:42;;;;;;;28.83;16.25;;;;;;;13.88;100.00;102097.69;5037052;28;20087;-77
2023/06/22 00:13:09;;;;;;;34.38;19.02;;;;;;;13.87;100.00;102102.22;5054790;28;20053;-77
2023/06/22 00:15:35;;;;;;;38.20;19.83;;;;;;;13.86;100.00;102100.50;5054971;28;20025;-76
2023/06/22 00:18:02;;;;;;;32.03;18.40;;;;;;;13.85;100.00;102103.31;5053738;28;20072;-78
2023/06/22 00:20:28;;;;;;;32.70;18.52;;;;;;;13.83;100.00;102105.28;5037652;28;20063;-78
2023/06/22 00:23:00;;;;;;;35.90;20.25;;;;;;;13.77;100.00;102095.94;5036526;28;20036;-79
2023/06/22 00:25:26;;;;;;;40.60;21.58;;;;;;;13.76;100.00;102094.22;5054518;28;20467;-76
2023/06/22 00:27:51;;;;;;;37.15;20.35;;;;;;;13.72;100.00;102099.00;5036541;28;20041;-77
2023/06/22 00:30:17;;;;;;;39.78;20.52;;;;;;;13.69;100.00;102103.75;5054473;28;20037;-77
2023/06/22 00:32:44;;;;;;;40.35;21.38;;;;;;;13.66;100.00;102093.31;5054656;28;20029;-77
2023/06/22 00:35:13;;;;;;;35.80;19.95;;;;;;;13.63;100.00;102089.09;5054465;28;20060;-77
2023/06/22 00:37:42;;;;;;;38.53;21.40;;;;;;;13.60;100.00;102086.66;5037112;28;20048;-76
2023/06/22 00:40:11;;;;;;;48.55;24.35;;;;;;;13.61;100.00;102098.19;5054673;28;20041;-77
2023/06/22 00:42:40;;;;;;;49.30;25.38;;;;;;;13.62;100.00;102094.56;5054786;28;20039;-75
2023/06/22 00:45:06;;;;;;;46.70;25.38;;;;;;;13.60;100.00;102097.38;5036777;28;20070;-76
2023/06/22 00:47:33;;;;;;;46.47;23.75;;;;;;;13.60;100.00;102094.69;5054351;28;20033;-75
2023/06/22 00:50:00;;;;;;;47.20;25.27;;;;;;;13.58;100.00;102091.28;5036393;28;20113;-76
2023/06/22 00:52:29;;;;;;;47.30;24.88;;;;;;;13.57;100.00;102089.59;5054454;28;20120;-77
2023/06/22 00:54:56;;;;;;;50.63;26.58;;;;;;;13.55;100.00;102083.50;5054252;28;20447;-75
2023/06/22 00:57:23;;;;;;;52.88;26.10;;;;;;;13.54;100.00;102080.00;5054505;28;20484;-77
2023/06/22 00:59:48;;;;;;;43.05;23.45;;;;;;;13.52;100.00;102075.75;5053916;28;20037;-77
2023/06/22 01:02:14;;;;;;;43.75;22.42;;;;;;;13.50;100.00;102073.22;5054195;28;20147;-76
2023/06/22 01:04:40;;;;;;;50.45;25.25;;;;;;;13.48;100.00;102071.63;5037116;28;20467;-77
2023/06/22 01:07:27;;;;;;;30.73;18.35;;;;;;;13.44;100.00;102068.38;5036046;28;20033;-77
2023/06/22 01:10:21;;;;;;;37.72;20.67;;;;;;;13.39;100.00;102068.75;5053726;28;20108;-77
2023/06/22 01:12:53;;;;;;;41.13;22.35;;;;;;;13.39;100.00;102070.56;5053659;28;20025;-78
2023/06/22 01:15:28;;;;;;;46.25;24.77;;;;;;;13.40;100.00;102072.28;5036740;28;20115;-78
2023/06/22 01:17:56;;;;;;;41.83;23.05;;;;;;;13.39;100.00;102068.75;5054038;28;20025;-77
2023/06/22 01:20:22;;;;;;;38.40;20.67;;;;;;;13.39;100.00;102076.78;5053554;28;20087;-76
2023/06/22 01:23:14;;;;;;;46.83;24.85;;;;;;;13.38;100.00;102082.25;5053432;28;20110;-76
2023/06/22 01:25:44;;;;;;;;;;;;;;;13.39;100.00;102073.25;5053603;28;20025;-76
2023/06/22 01:28:34;;;;;;;50.75;25.95;;;;;;;13.39;100.00;102078.59;5053201;28;20363;-77
2023/06/22 01:31:05;;;;;;;48.75;23.95;;;;;;;13.36;100.00;102076.16;5036619;28;20484;-77
2023/06/22 01:33:37;;;;;;;46.50;24.08;;;;;;;13.33;100.00;102068.38;5054095;28;20037;-78
2023/06/22 01:36:04;;;;;;;48.35;23.48;;;;;;;13.31;100.00;102068.50;5053500;28;20033;-77
2023/06/22 01:38:30;;;;;;;46.25;24.38;;;;;;;13.31;100.00;102065.00;5035363;28;20128;-76
2023/06/22 01:40:58;;;;;;;39.50;21.27;;;;;;;13.30;100.00;102065.97;5053186;28;20041;-77
2023/06/22 01:43:26;;;;;;;34.70;19.08;;;;;;;13.26;100.00;102068.06;5052779;28;20125;-76
2023/06/22 01:45:52;;;;;;;42.95;22.08;;;;;;;13.26;100.00;102057.34;5035263;28;20021;-75
2023/06/22 01:48:19;;;;;;;31.23;17.77;;;;;;;13.23;100.00;102054.94;5053351;28;20549;-77
2023/06/22 01:50:45;;;;;;;30.15;16.50;;;;;;;13.20;100.00;102060.53;5053030;28;20031;-77
2023/06/22 01:53:10;;;;;;;28.60;15.50;;;;;;;13.16;100.00;102062.59;5053227;28;20108;-76
2023/06/22 01:55:36;;;;;;;25.73;14.88;;;;;;;13.14;100.00;102058.38;5053954;28;20040;-76
2023/06/22 01:58:01;;;;;;;28.20;16.73;;;;;;;13.12;100.00;102068.31;5036624;28;20098;-79
2023/06/22 02:00:31;;;;;;;27.10;16.02;;;;;;;13.11;100.00;102064.81;5052598;28;20056;-77
2023/06/22 02:03:02;;;;;;;35.13;19.02;;;;;;;13.10;100.00;102059.59;5053180;28;20029;-77
2023/06/22 02:05:34;;;;;;;30.88;15.50;;;;;;;13.10;100.00;102060.44;5053061;28;20120;-78
2023/06/22 02:08:07;;;;;;;27.83;14.82;;;;;;;13.08;100.00;102062.41;5052980;28;20025;-77
2023/06/22 02:10:34;;;;;;;32.03;17.70;;;;;;;13.10;100.00;102051.59;5052908;28;20032;-77
2023/06/22 02:13:00;;;;;;;27.13;14.38;;;;;;;13.09;100.00;102052.53;5033850;28;20071;-78
2023/06/22 02:15:26;;;;;;;22.52;12.63;;;;;;;13.04;100.00;102051.09;5052574;28;20040;-76
2023/06/22 02:17:52;;;;;;;30.52;17.25;;;;;;;13.04;100.00;102050.25;5034290;28;20365;-76
2023/06/22 02:20:17;;;;;;;28.90;15.85;;;;;;;13.05;100.00;102050.13;5034142;28;20044;-77
2023/06/22 02:22:43;;;;;;;30.67;17.00;;;;;;;13.08;100.00;102045.50;5052084;28;20037;-77
2023/06/22 02:25:08;;;;;;;25.15;15.27;;;;;;;13.08;100.00;102048.16;5051144;28;20029;-77
2023/06/22 02:27:34;;;;;;;23.42;13.70;;;;;;;13.03;100.00;102049.41;5052306;28;20031;-76
2023/06/22 02:29:59;;;;;;;24.30;12.98;;;;;;;13.00;100.00;102051.47;5051977;28;20163;-77
2023/06/22 02:32:25;;;;;;;28.08;15.45;;;;;;;12.99;100.00;102044.47;5051884;28;20033;-76
2023/06/22 02:34:50;;;;;;;24.40;14.07;;;;;;;12.99;100.00;102044.47;5051865;28;20465;-77
2023/06/22 02:37:16;;;;;;;28.35;16.42;;;;;;;12.97;100.00;102049.94;5034055;28;20059;-76
2023/06/22 02:39:41;;;;;;;26.25;13.43;;;;;;;12.95;100.00;102046.50;5051817;28;20108;-76
2023/06/22 02:42:07;;;;;;;28.67;15.73;;;;;;;12.97;100.00;102043.72;5051500;28;20037;-78
2023/06/22 02:44:32;;;;;;;21.92;13.10;;;;;;;12.97;100.00;102036.56;5052243;28;20025;-77
2023/06/22 02:46:58;;;;;;;23.33;13.65;;;;;;;12.95;100.00;102043.00;5052138;28;20037;-77
2023/06/22 02:49:23;;;;;;;20.25;12.57;;;;;;;12.92;100.00;102040.59;5034499;28;20578;-76
2023/06/22 02:51:49;;;;;;;28.55;16.38;;;;;;;12.94;100.00;102041.28;5052210;28;20399;-77
2023/06/22 02:54:16;;;;;;;20.20;12.38;;;;;;;12.92;100.00;102048.59;5040547;28;20033;-77
2023/06/22 02:56:43;;;;;;;20.05;12.20;;;;;;;12.94;100.00;102055.50;5052049;28;20086;-77
2023/06/22 02:59:10;;;;;;;19.55;11.98;;;;;;;12.91;100.00;102050.41;5052454;28;20033;-80
2023/06/22 03:01:39;;;;;;;20.35;11.88;;;;;;;12.88;100.00;102048.84;5052026;28;20111;-77
2023/06/22 03:04:05;;;;;;;19.73;11.88;;;;;;;12.87;100.00;102059.66;5052601;28;20059;-77
2023/06/22 03:06:31;;;;;;;19.83;11.82;;;;;;;12.86;100.00;102060.63;5051483;28;20029;-76
2023/06/22 03:09:02;;;;;;;21.27;13.20;;;;;;;12.84;100.00;102059.91;5051698;28;20102;-76
2023/06/22 03:11:27;;;;;;;21.15;12.75;;;;;;;12.83;100.00;102053.69;5034616;28;20116;-77
2023/06/22 03:13:53;;;;;;;20.15;11.75;;;;;;;12.80;100.00;102067.31;5051866;28;20416;-77
2023/06/22 03:16:19;;;;;;;20.05;11.45;;;;;;;12.76;100.00;102062.34;5052380;28;20037;-77
2023/06/22 03:18:44;;;;;;;22.67;12.77;;;;;;;12.75;100.00;102042.81;5052561;28;20025;-75
2023/06/22 03:21:10;;;;;;;22.95;13.65;;;;;;;12.72;100.00;102029.69;5040129;28;20044;-76
2023/06/22 03:23:36;;;;;;;23.70;13.80;;;;;;;12.73;100.00;102025.19;5052278;28;20039;-77
2023/06/22 03:26:02;;;;;;;20.13;11.20;;;;;;;12.68;100.00;102023.75;5051895;28;20033;-76
2023/06/22 03:28:27;;;;;;;19.38;11.82;;;;;;;12.67;100.00;102018.53;5051793;28;20389;-76
2023/06/22 03:30:52;;;;;;;22.02;13.02;;;;;;;12.64;100.00;102019.63;5051899;28;20037;-76
2023/06/22 03:33:18;;;;;;;23.15;12.63;;;;;;;12.64;100.00;102010.75;5051525;28;20060;-76
2023/06/22 03:35:43;;;;;;;21.45;12.30;;;;;;;12.63;100.00;102015.28;5052140;28;20357;-76
2023/06/22 03:38:08;;;;;;;22.20;13.07;;;;;;;12.59;100.00;102016.47;5051694;28;20086;-76
2023/06/22 03:40:34;;;;;;;24.08;14.93;;;;;;;12.60;100.00;102020.84;5017814;28;20453;-75
2023/06/22 03:42:59;;;;;;;27.52;15.77;;;;;;;12.60;100.00;102026.19;5033598;28;20033;-76
2023/06/22 03:45:24;;;;;;;28.17;15.95;;;;;;;12.59;100.00;102023.66;5051357;28;20045;-76
2023/06/22 03:47:50;;;;;;;23.23;13.38;;;;;;;12.58;100.00;102019.28;5051807;28;20522;-76
2023/06/22 03:50:15;;;;;;;39.25;21.00;;;;;;;12.61;100.00;102022.53;5052274;28;20048;-78
2023/06/22 03:52:41;;;;;;;31.75;15.70;;;;;;;12.60;100.00;102023.53;5036186;28;20043;-76
2023/06/22 03:55:07;;;;;;;35.40;18.65;;;;;;;12.61;100.00;102013.69;5055097;28;20090;-76
2023/06/22 03:57:33;;;;;;;39.33;19.30;;;;;;;12.63;100.00;102012.59;5055693;28;20036;-76
2023/06/22 04:00:00;;;;;;;30.63;15.57;;;;;;;12.66;100.00;102012.34;5055577;28;20037;-76
2023/06/22 04:02:26;;;;;;;31.20;15.85;;;;;;;12.67;100.00;102002.50;5054949;28;20472;-77
2023/06/22 04:04:51;;;;;;;39.08;19.48;;;;;;;12.72;100.00;102005.66;5054694;28;20025;-76
2023/06/22 04:07:17;;;;;;;29.67;16.15;;;;;;;12.73;100.00;102003.84;5055006;28;20083;-77
2023/06/22 04:09:43;;;;;;;26.92;15.18;;;;;;;12.76;100.00;102003.59;5055212;28;20467;-77
2023/06/22 04:12:09;;;;;;;36.25;19.02;;;;;;;12.77;100.00;102003.47;5054833;28;20033;-76
2023/06/22 04:14:34;;;;;;;44.03;19.67;;;;;;;12.81;100.00;102004.91;5054739;28;20057;-76
2023/06/22 04:16:59;;;;;;;35.13;17.88;;;;;;;12.87;100.00;102004.41;5037803;28;20483;-76
2023/06/22 04:19:25;;;;;;;40.15;19.48;;;;;;;12.91;100.00;102007.66;5054741;28;20033;-77
2023/06/22 04:21:50;;;;;;;28.58;14.93;;;;;;;12.95;100.00;102017.13;5055208;28;20039;-77
2023/06/22 04:24:15;;;;;;;31.92;17.58;;;;;;;12.98;100.00;102011.53;5055898;28;20423;-77
2023/06/22 04:26:42;;;;;;;38.08;18.77;;;;;;;13.06;100.00;102021.56;5055062;28;20112;-75
2023/06/22 04:29:08;;;;;;;33.53;18.17;;;;;;;13.11;100.00;102022.06;5054227;28;20388;-76
2023/06/22 04:31:36;;;;;;;35.33;17.73;;;;;;;13.17;100.00;102026.06;5036849;28;20451;-76
2023/06/22 04:34:06;;;;;;;30.92;16.30;;;;;;;13.23;100.00;102025.53;5036553;28;20036;-77
2023/06/22 04:36:38;;;;;;;33.08;17.58;;;;;;;13.31;100.00;102024.91;5054101;28;20033;-76
2023/06/22 04:39:05;;;;;;;45.85;22.35;;;;;;;13.39;100.00;102023.31;5036390;28;20040;-76
2023/06/22 04:41:41;;;;;;;53.60;25.02;;;;;;;13.52;100.00;102027.63;5036523;28;20091;-75
2023/06/22 04:44:07;;;;;;;49.33;24.38;;;;;;;13.62;100.00;102015.19;5054927;28;20140;-77
2023/06/22 04:46:35;;;;;;;48.08;23.60;;;;;;;13.71;100.00;102022.41;5054351;28;20061;-77
2023/06/22 04:49:00;;;;;;;55.85;24.77;;;;;;;13.83;100.00;102017.00;5054963;28;20120;-77
2023/06/22 04:51:30;;;;;;;54.80;25.27;;;;;;;13.96;100.00;102024.78;5037542;28;20452;-76
2023/06/22 04:54:00;;;;;;;61.05;27.35;;;;;;;14.08;100.00;102029.94;5056381;28;20029;-77
2023/06/22 04:56:27;;;;;;;62.50;28.45;;;;;;;14.24;100.00;102032.16;5038284;28;20029;-78
2023/06/22 04:58:55;;;;;;;64.72;31.17;;;;;;;14.38;100.00;102028.25;5037413;28;20055;-77
2023/06/22 05:01:22;;;;;;;67.63;30.95;;;;;;;14.51;100.00;102027.16;5055072;28;20033;-78
2023/06/22 05:03:48;;;;;;;66.10;30.55;;;;;;;14.62;100.00;102024.41;5055061;28;20108;-77
2023/06/22 05:06:14;;;;;;;61.63;28.38;;;;;;;14.68;100.00;102021.19;5037446;28;20052;-77
2023/06/22 05:08:39;;;;;;;60.08;29.13;;;;;;;14.76;100.00;102020.50;5037170;28;20032;-77
2023/06/22 05:11:05;;;;;;;61.75;29.77;;;;;;;14.83;100.00;102032.34;5054686;28;20381;-79
2023/06/22 05:13:31;;;;;;;64.97;29.67;;;;;;;14.92;100.00;102028.84;5036806;28;20045;-78
2023/06/22 05:16:00;;;;;;;58.45;27.88;;;;;;;14.99;100.00;102021.09;5054408;28;20172;-77
2023/06/22 05:18:29;;;;;;;61.38;27.33;;;;;;;15.07;100.00;102029.28;5055058;28;20083;-79
2023/06/22 05:20:55;;;;;;;53.30;26.98;;;;;;;15.15;100.00;102026.75;5036719;28;20044;-77
2023/06/22 05:23:20;;;;;;;55.80;25.02;;;;;;;15.22;100.00;102028.88;5054818;28;20029;-78
2023/06/22 05:25:46;;;;;;;53.30;25.08;;;;;;;15.28;100.00;102037.19;5036485;28;20101;-77
2023/06/22 05:28:12;;;;;;;50.85;26.48;;;;;;;15.34;100.00;102022.38;5054684;28;20476;-77
2023/06/22 05:30:38;;;;;;;50.90;25.70;;;;;;;15.37;100.00;102024.78;5054768;28;20116;-77
2023/06/22 05:33:03;;;;;;;47.72;24.55;;;;;;;15.43;100.00;102028.72;5054336;28;20064;-77
2023/06/22 05:35:29;;;;;;;52.85;25.20;;;;;;;15.47;100.00;102025.63;5054935;28;20028;-80
2023/06/22 05:37:55;;;;;;;47.80;24.00;;;;;;;15.53;100.00;102010.81;5054531;28;20495;-78
2023/06/22 05:40:21;;;;;;;45.53;22.92;;;;;;;15.60;100.00;102017.28;5055189;28;20036;-78
2023/06/22 05:42:46;;;;;;;47.55;23.75;;;;;;;15.65;100.00;102009.66;5054469;28;20124;-76
2023/06/22 05:45:11;;;;;;;45.58;22.75;;;;;;;15.73;100.00;102016.97;5054440;28;20025;-78
2023/06/22 05:47:37;;;;;;;42.28;22.90;;;;;;;15.82;100.00;102026.03;5036574;28;20037;-77
2023/06/22 05:50:06;;;;;;;51.05;24.63;;;;;;;15.89;100.00;102020.94;5036278;28;20036;-77
2023/06/22 05:52:32;;;;;;;47.95;23.08;;;;;;;16.00;100.00;102021.63;5053640;28;20037;-77
2023/06/22 05:54:57;;;;;;;49.63;24.15;;;;;;;16.08;100.00;102026.25;5036141;28;20167;-78
2023/06/22 05:57:22;;;;;;;48.55;25.08;;;;;;;16.25;100.00;102027.31;5053915;28;20040;-77
2023/06/22 05:59:48;;;;;;;42.10;22.15;;;;;;;16.48;100.00;102018.84;5053688;28;20033;-76
2023/06/22 06:02:14;;;;;;;41.90;22.27;;;;;;;16.63;100.00;102024.56;5035791;28;20473;-76
2023/06/22 06:04:39;;;;;;;40.05;21.67;;;;;;;16.78;100.00;102023.09;5053928;28;20033;-75
2023/06/22 06:07:04;;;;;;;38.33;20.73;;;;;;;16.89;100.00;102022.06;5053699;28;20460;-73
2023/06/22 06:09:33;;;;;;;34.17;19.42;;;;;;;17.04;100.00;102025.06;5035551;28;20033;-74
2023/06/22 06:11:59;;;;;;;34.83;19.13;;;;;;;17.16;100.00;102018.44;5018932;28;20029;-73
2023/06/22 06:14:24;;;;;;;36.78;19.42;;;;;;;17.27;100.00;102017.34;5053838;28;20052;-72
2023/06/22 06:16:49;;;;;;;32.63;17.58;;;;;;;17.37;100.00;102015.44;5053228;28;20400;-74
2023/06/22 06:19:15;;;;;;;36.25;17.83;;;;;;;17.49;100.00;102017.88;5035586;28;20471;-73
2023/06/22 06:21:40;;;;;;;25.98;16.52;;;;;;;17.62;100.00;102010.25;5053766;28;20090;-73
2023/06/22 06:24:06;;;;;;;27.40;16.17;;;;;;;17.74;100.00;102008.16;5053178;28;20124;-73
2023/06/22 06:26:32;;;;;;;24.40;15.88;;;;;;;17.84;100.00;102011.59;5053196;28;20552;-74
2023/06/22 06:28:59;;;;;;;27.42;16.20;;;;;;;17.97;100.00;102013.88;5052883;28;20474;-73
2023/06/22 06:31:28;;;;;;;25.60;16.17;;;;;;;18.07;100.00;102016.47;5052807;28;20087;-74
2023/06/22 06:33:54;;;;;;;28.65;14.82;;;;;;;18.14;100.00;102010.25;5034824;28;20040;-74
2023/06/22 06:36:19;;;;;;;21.13;15.10;;;;;;;18.23;100.00;102011.16;5034403;28;20025;-74
2023/06/22 06:38:47;;;;;;;24.80;15.45;;;;;;;18.31;100.00;102004.94;5034757;28;20041;-73
2023/06/22 06:41:13;;;;;;;20.75;15.48;;;;;;;18.44;100.00;102007.19;5053041;28;20426;-73
2023/06/22 06:43:38;;;;;;;24.77;15.32;;;;;;;18.50;100.00;102003.84;5034605;28;20036;-72
2023/06/22 06:46:04;;;;;;;23.77;15.88;;;;;;;18.57;100.00;101996.81;5053316;28;20041;-72
2023/06/22 06:48:29;;;;;;;22.60;15.05;;;;;;;18.68;100.00;101991.09;5052346;28;20032;-72
2023/06/22 06:50:54;;;;;;;22.25;14.23;;;;;;;18.88;100.00;101996.22;5052696;28;20025;-73
2023/06/22 06:53:23;;;;;;;21.50;14.70;;;;;;;19.17;100.00;101993.06;5052164;28;20036;-74
2023/06/22 06:55:49;;;;;;;19.45;13.38;;;;;;;19.48;100.00;101994.22;5018500;28;20037;-73
2023/06/22 06:58:14;;;;;;;19.58;12.23;;;;;;;19.76;100.00;101991.16;5052209;28;20044;-78
2023/06/22 07:00:40;;;;;;;17.05;12.50;;;;;;;19.98;100.00;101982.34;5052342;28;20457;-72
2023/06/22 07:03:06;;;;;;;16.55;11.35;;;;;;;20.18;100.00;101974.69;5052661;28;20037;-72
2023/06/22 07:05:32;;;;;;;19.42;11.27;;;;;;;20.39;100.00;101984.03;5034508;28;20048;-73
2023/06/22 07:07:57;;;;;;;14.50;11.38;;;;;;;20.57;100.00;101981.06;5052532;28;20029;-73
2023/06/22 07:10:23;;;;;;;18.40;11.80;;;;;;;20.70;100.00;101984.06;5052393;28;20432;-73
2023/06/22 07:12:48;;;;;;;14.70;10.98;;;;;;;20.83;100.00;101977.25;5033696;28;20041;-76
2023/06/22 07:15:13;;;;;;;15.10;10.60;;;;;;;20.95;100.00;101970.38;5052208;28;20037;-74
2023/06/22 07:17:42;;;;;;;16.17;10.05;;;;;;;21.08;100.00;101970.63;5052243;28;20035;-75
2023/06/22 07:20:10;;;;;;;14.60;9.43;;;;;;;21.17;100.00;101967.84;5052280;28;20092;-75
2023/06/22 07:22:36;;;;;;;11.93;8.85;;;;;;;21.30;100.00;101968.91;5052381;28;20033;-74
2023/06/22 07:25:08;;;;;;;15.65;8.23;;;;;;;21.31;100.00;101964.34;5051848;28;20029;-75
2023/06/22 07:27:35;;;;;;;11.65;7.57;;;;;;;21.24;100.00;101963.38;5054275;28;20040;-74
2023/06/22 07:30:02;;;;;;;9.32;7.30;;;;;;;21.25;100.00;101967.78;5056249;28;20029;-75
2023/06/22 07:32:28;;;;;;;9.05;6.70;;;;;;;21.48;100.00;101959.59;5056091;28;20052;-76
2023/06/22 07:34:54;;;;;;;10.48;6.75;;;;;;;21.76;100.00;101961.72;5038019;28;20029;-75
2023/06/22 07:37:19;;;;;;;9.93;6.85;;;;;;;22.09;100.00;101961.34;5055837;28;20059;-74
2023/06/22 07:39:44;;;;;;;11.65;6.50;;;;;;;22.34;100.00;101961.91;5038522;28;20117;-75
2023/06/22 07:42:10;;;;;;;10.25;6.30;;;;;;;22.51;100.00;101957.94;5056036;28;20068;-77
2023/06/22 07:44:35;;;;;;;10.75;6.00;;;;;;;22.66;100.00;101954.31;5055440;28;20041;-76
2023/06/22 07:47:01;;;;;;;9.35;5.38;;;;;;;22.73;100.00;101947.09;5056099;28;20033;-75
2023/06/22 07:49:28;;;;;;;8.10;4.95;;;;;;;22.91;100.00;101937.66;5055959;28;20116;-75
2023/06/22 07:51:53;;;;;;;6.85;5.38;;;;;;;22.99;100.00;101937.53;5055647;28;20029;-75
2023/06/22 07:54:18;;;;;;;8.90;5.97;;;;;;;23.24;100.00;101935.25;5055590;28;20029;-74
2023/06/22 07:56:45;;;;;;;10.95;5.82;;;;;;;23.45;100.00;101933.53;5055942;28;20112;-75
2023/06/22 07:59:11;;;;;;;7.40;4.80;;;;;;;23.58;100.00;101928.19;5055778;28;20491;-74
2023/06/22 08:01:36;;;;;;;6.18;4.93;;;;;;;23.68;100.00;101936.81;5055710;28;20053;-74
2023/06/22 08:04:02;;;;;;;8.70;4.45;;;;;;;23.81;100.00;101922.50;5056336;28;20368;-75
2023/06/22 08:06:29;;;;;;;8.85;4.55;;;;;;;23.95;100.00;101917.97;5038179;28;20025;-73
2023/06/22 08:08:56;;;;;;;5.20;3.60;;;;;;;24.05;100.00;101925.75;5055508;28;20448;-75
2023/06/22 08:11:23;;;;;;;8.80;4.47;;;;;;;24.10;100.00;101913.22;5056308;28;20033;-75
2023/06/22 08:13:49;;;;;;;6.60;4.30;;;;;;;24.27;100.00;101918.28;5055396;28;20094;-77
2023/06/22 08:16:14;;;;;;;6.68;3.80;;;;;;;24.49;100.00;101907.28;5055576;28;20037;-79
2023/06/22 08:18:40;;;;;;;4.68;3.55;;;;;;;24.70;100.00;101918.00;5055916;28;20484;-77
2023/06/22 08:21:05;;;;;;;3.25;2.95;;;;;;;24.69;100.00;101916.31;5037636;28;20165;-77
2023/06/22 08:23:31;;;;;;;3.40;2.53;;;;;;;24.49;94.41;101915.44;5055582;28;20108;-77
2023/06/22 08:25:56;;;;;;;8.93;2.92;;;;;;;24.54;97.96;101919.22;5056446;28;20029;-75
2023/06/22 08:28:21;;;;;;;9.40;3.40;;;;;;;24.56;100.00;101919.84;5058934;28;20067;-75
2023/06/22 08:30:47;;;;;;;7.82;3.83;;;;;;;24.76;97.92;101927.22;5039808;28;20037;-75
2023/06/22 08:33:12;;;;;;;6.25;3.90;;;;;;;24.89;92.70;101912.81;5058959;28;20488;-76
2023/06/22 08:35:38;;;;;;;7.10;3.60;;;;;;;24.99;93.80;101914.06;5056362;28;20051;-75
2023/06/22 08:38:04;;;;;;;5.82;4.50;;;;;;;25.02;96.92;101911.97;5037728;28;20040;-78
2023/06/22 08:40:29;;;;;;;6.40;4.30;;;;;;;25.01;93.91;101907.59;5059294;28;20086;-76
2023/06/22 08:42:54;;;;;;;6.07;3.67;;;;;;;25.11;96.12;101906.09;5055620;28;20029;-77
2023/06/22 08:45:20;;;;;;;4.85;3.65;;;;;;;25.34;85.87;101905.69;5056565;28;20044;-76
2023/06/22 08:47:46;;;;;;;6.82;4.10;;;;;;;25.40;83.66;101908.63;5037906;28;20310;-76
2023/06/22 08:50:12;;;;;;;4.95;3.90;;;;;;;25.55;95.04;101901.03;5055324;28;20136;-75
2023/06/22 08:52:41;;;;;;;5.28;3.75;;;;;;;25.71;83.01;101897.00;5055464;28;20484;-80
2023/06/22 08:55:07;;;;;;;8.73;4.07;;;;;;;26.01;90.02;101904.69;5056473;28;20033;-78
2023/06/22 08:57:32;;;;;;;6.18;3.70;;;;;;;26.19;81.70;101902.06;5056303;28;20033;-81
2023/06/22 08:59:59;;;;;;;4.85;3.05;;;;;;;26.39;82.19;101903.84;5038601;28;20110;-80
2023/06/22 09:02:25;;;;;;;8.20;3.60;;;;;;;26.39;76.79;101899.25;5055875;28;20082;-80
2023/06/22 09:04:55;;;;;;;5.93;3.50;;;;;;;26.70;70.41;101899.47;5055409;28;20067;-75
2023/06/22 09:07:22;;;;;;;4.37;3.97;;;;;;;26.97;70.38;101894.63;5054405;28;20068;-75
2023/06/22 09:09:47;;;;;;;6.82;3.90;;;;;;;27.02;73.00;101894.81;5037330;28;20469;-76
2023/06/22 09:12:13;;;;;;;9.23;3.33;;;;;;;27.60;72.79;101887.31;5020200;28;20061;-81
2023/06/22 09:14:38;;;;;;;6.85;3.38;;;;;;;28.04;69.00;101887.25;5036904;28;20041;-76
2023/06/22 09:17:04;;;;;;;10.15;4.72;;;;;;;28.27;63.15;101890.03;5054352;28;20414;-76
2023/06/22 09:19:29;;;;;;;6.03;5.18;;;;;;;28.11;62.71;101886.06;5020664;28;20041;-76
2023/06/22 09:21:54;;;;;;;7.93;4.80;;;;;;;28.22;59.86;101881.72;5055007;28;20489;-76
2023/06/22 09:24:20;;;;;;;9.60;4.53;;;;;;;28.18;59.74;101890.63;5054432;28;20036;-77
2023/06/22 09:26:45;;;;;;;7.68;4.80;;;;;;;28.00;69.47;101886.03;5054282;28;20350;-76
2023/06/22 09:29:11;;;;;;;5.38;4.25;;;;;;;27.55;60.90;101887.16;5053884;28;20029;-76
2023/06/22 09:31:36;;;;;;;7.10;4.88;;;;;;;27.47;66.68;101888.31;5054949;28;20444;-77
2023/06/22 09:34:02;;;;;;;7.63;4.90;;;;;;;27.26;71.92;101890.38;5054482;28;20477;-77
2023/06/22 09:36:27;;;;;;;7.97;5.18;;;;;;;27.16;83.25;101890.06;5036598;28;20082;-76
2023/06/22 09:38:55;;;;;;;9.05;6.18;;;;;;;27.27;72.79;101885.75;5053899;28;20044;-76
2023/06/22 09:41:20;;;;;;;8.38;5.13;;;;;;;27.19;78.65;101883.31;5054499;28;20032;-77
2023/06/22 09:43:45;;;;;;;7.28;4.97;;;;;;;26.80;63.89;101877.13;5054160;28;20471;-77
2023/06/22 09:46:11;;;;;;;15.82;6.70;;;;;;;26.72;74.65;101873.66;5036125;28;20443;-77
2023/06/22 09:48:36;;;;;;;12.00;7.95;;;;;;;26.50;80.75;101873.13;5053828;28;20439;-76
2023/06/22 09:51:02;;;;;;;11.20;7.80;;;;;;;26.34;85.07;101866.31;5053721;28;20029;-78
2023/06/22 09:53:28;;;;;;;10.05;6.80;;;;;;;26.48;90.59;101855.31;5054253;28;20082;-75
2023/06/22 09:55:53;;;;;;;7.32;5.88;;;;;;;26.69;87.69;101852.25;5054357;28;20037;-75
2023/06/22 09:58:19;;;;;;;12.10;6.43;;;;;;;26.67;86.99;101859.00;5053660;28;20091;-75
2023/06/22 10:00:44;;;;;;;8.60;6.15;;;;;;;26.50;85.95;101862.22;5035791;28;20037;-77
2023/06/22 10:03:10;;;;;;;9.70;5.97;;;;;;;26.54;84.84;101855.28;5053503;28;20033;-76
2023/06/22 10:05:35;;;;;;;10.35;5.10;;;;;;;26.79;94.24;101854.47;5053713;28;20029;-76
2023/06/22 10:08:00;;;;;;;11.52;6.53;;;;;;;26.79;87.18;101859.09;5053276;28;20035;-75
2023/06/22 10:10:26;;;;;;;11.10;5.40;;;;;;;27.04;92.85;101857.19;5053326;28;20076;-75
2023/06/22 10:12:57;;;;;;;9.25;5.85;;;;;;;27.03;78.59;101865.59;5053250;28;20465;-78
2023/06/22 10:15:22;;;;;;;8.15;5.88;;;;;;;26.74;80.87;101860.59;5053258;28;20087;-75
2023/06/22 10:17:48;;;;;;;7.72;4.97;;;;;;;26.69;79.00;101857.72;5053601;28;20419;-75
2023/06/22 10:20:14;;;;;;;8.30;4.80;;;;;;;26.62;77.16;101862.34;5053817;28;20124;-77
2023/06/22 10:22:44;;;;;;;8.70;5.50;;;;;;;26.33;77.32;101859.19;5053447;28;20029;-76
2023/06/22 10:25:11;;;;;;;10.02;5.38;;;;;;;26.40;78.87;101864.59;5053390;28;20127;-76
2023/06/22 10:27:39;;;;;;;17.63;5.90;;;;;;;26.57;81.11;101868.47;5053259;28;20041;-75
2023/06/22 10:30:06;;;;;;;12.65;6.68;;;;;;;26.52;80.54;101868.28;5053134;28;20025;-77
2023/06/22 10:32:31;;;;;;;13.35;7.28;;;;;;;26.29;83.85;101862.56;5052481;28;20047;-76
2023/06/22 10:34:56;;;;;;;10.63;6.50;;;;;;;26.13;89.99;101856.59;5053161;28;20029;-76
2023/06/22 10:37:22;;;;;;;9.02;6.13;;;;;;;26.13;96.13;101858.50;5035007;28;20091;-75
2023/06/22 10:39:47;;;;;;;7.22;6.15;;;;;;;26.15;99.33;101859.91;5053023;28;20380;-76
2023/06/22 10:42:13;;;;;;;11.18;6.05;;;;;;;26.04;97.36;101860.63;5035712;28;20369;-76
2023/06/22 10:44:41;;;;;;;7.90;5.63;;;;;;;25.92;98.02;101856.88;5019072;28;20037;-77
2023/06/22 10:47:06;;;;;;;7.90;4.55;;;;;;;26.04;96.03;101857.91;5053004;28;20037;-77
2023/06/22 10:49:32;;;;;;;9.07;4.68;;;;;;;25.87;89.54;101863.81;5052920;28;20029;-76
2023/06/22 10:51:57;;;;;;;8.15;4.80;;;;;;;25.86;93.87;101870.31;5052989;28;20033;-77
2023/06/22 10:54:22;;;;;;;8.35;5.63;;;;;;;25.70;91.70;101863.44;5053364;28;20414;-76
2023/06/22 10:56:48;;;;;;;6.65;4.93;;;;;;;25.61;95.56;101866.66;5053337;28;20025;-76
2023/06/22 10:59:13;;;;;;;8.65;5.63;;;;;;;25.50;95.63;101865.44;5053173;28;20078;-76
2023/06/22 11:01:39;;;;;;;7.38;5.40;;;;;;;25.43;95.79;101872.78;5052348;28;20112;-75
2023/06/22 11:04:04;;;;;;;7.00;5.65;;;;;;;25.33;93.11;101870.47;5052704;28;20374;-75
2023/06/22 11:06:30;;;;;;;7.30;5.40;;;;;;;25.29;99.65;101861.03;5052883;28;20102;-76